Time;durP1;ratioP1;P1;durP2;ratioP2;P2;SDS_P1;SDS_P2;PMS_P1;PMS_P2;Temp;Humidity;BMP_temperature;BMP_pressure;BME280_temperature;BME280_humidity;BME280_pressure;Samples;Min_cycle;Max_cycle;Signal;HPM_P1;HPM_P2
2022/10/17 00:01:31;;;;;;;10.00;9.30;;;17.20;99.90;;;;;;5034177;28;20269;-68
2022/10/17 00:03:57;;;;;;;8.83;8.23;;;17.20;99.90;;;;;;5032671;28;20182;-68
2022/10/17 00:06:22;;;;;;;9.80;8.90;;;17.20;99.90;;;;;;5033790;28;20249;-68
2022/10/17 00:08:48;;;;;;;9.30;8.60;;;17.30;99.90;;;;;;5033983;28;20202;-68
2022/10/17 00:11:21;;;;;;;9.57;8.80;;;17.20;99.90;;;;;;5033334;28;20252;-68
2022/10/17 00:13:49;;;;;;;9.47;8.67;;;17.20;99.90;;;;;;5032363;28;20429;-69
2022/10/17 00:16:23;;;;;;;9.93;9.20;;;17.30;99.90;;;;;;5033825;28;20916;-68
2022/10/17 00:18:49;;;;;;;10.50;9.50;;;17.30;99.90;;;;;;5033816;28;20548;-73
2022/10/17 00:21:16;;;;;;;9.90;8.93;;;17.20;99.90;;;;;;5033049;28;20951;-68
2022/10/17 00:23:42;;;;;;;10.20;9.30;;;17.20;99.90;;;;;;5033916;28;20182;-70
2022/10/17 00:26:09;;;;;;;8.90;8.30;;;17.20;99.90;;;;;;5032941;28;20430;-68
2022/10/17 00:28:35;;;;;;;9.30;8.70;;;17.30;99.90;;;;;;5033447;28;20218;-68
2022/10/17 00:31:05;;;;;;;9.30;8.60;;;17.30;99.90;;;;;;5032324;28;20935;-68
2022/10/17 00:33:32;;;;;;;8.93;8.17;;;17.40;99.90;;;;;;5031218;28;20182;-68
2022/10/17 00:36:15;;;;;;;9.37;8.67;;;17.30;99.90;;;;;;5032323;28;20782;-68
2022/10/17 00:38:43;;;;;;;9.37;8.67;;;17.30;99.90;;;;;;5033630;28;20409;-68
2022/10/17 00:41:10;;;;;;;8.90;8.20;;;17.30;99.90;;;;;;5032496;28;20405;-68
2022/10/17 00:44:02;;;;;;;8.67;7.80;;;17.30;99.90;;;;;;5032640;28;20436;-68
2022/10/17 00:46:32;;;;;;;8.47;7.97;;;17.30;99.90;;;;;;5032554;28;20524;-69
2022/10/17 00:49:02;;;;;;;9.70;8.90;;;17.40;99.90;;;;;;5032671;28;20449;-68
2022/10/17 00:51:35;;;;;;;9.17;8.37;;;17.40;99.90;;;;;;5032811;28;20425;-68
2022/10/17 00:54:03;;;;;;;8.27;7.47;;;17.40;99.90;;;;;;5031349;28;20461;-68
2022/10/17 00:56:30;;;;;;;8.73;7.87;;;17.40;99.90;;;;;;5033106;28;20435;-68
2022/10/17 00:58:56;;;;;;;8.70;8.00;;;17.40;99.90;;;;;;5032468;28;20908;-68
2022/10/17 01:01:22;;;;;;;8.47;7.90;;;17.50;99.90;;;;;;5033130;28;20444;-68
2022/10/17 01:03:47;;;;;;;8.60;7.90;;;17.50;99.90;;;;;;5032358;28;20543;-68
2022/10/17 01:06:13;;;;;;;9.60;8.90;;;17.50;99.90;;;;;;5032271;28;20210;-68
2022/10/17 01:08:39;;;;;;;8.67;8.07;;;17.50;99.90;;;;;;5023061;28;20273;-68
2022/10/17 01:11:55;;;;;;;8.93;8.27;;;17.50;99.90;;;;;;4995055;28;20588;-68
2022/10/17 01:14:39;;;;;;;8.00;7.50;;;17.50;99.90;;;;;;4945490;28;20827;-68
2022/10/17 01:17:20;;;;;;;8.90;8.10;;;17.50;99.90;;;;;;5011846;28;20464;-68
2022/10/17 01:20:17;;;;;;;8.63;8.03;;;17.50;99.90;;;;;;5013072;28;20386;-68
2022/10/17 01:22:53;;;;;;;9.63;8.90;;;17.50;99.90;;;;;;5000980;28;20425;-68
2022/10/17 01:25:49;;;;;;;8.60;8.00;;;17.50;99.90;;;;;;5019866;28;20438;-68
2022/10/17 01:28:33;;;;;;;8.77;8.17;;;17.40;99.90;;;;;;5012352;28;20457;-68
2022/10/17 01:31:03;;;;;;;8.47;7.87;;;17.40;99.90;;;;;;5012395;28;20757;-68
2022/10/17 01:34:02;;;;;;;8.63;7.87;;;17.40;99.90;;;;;;4994026;28;20794;-68
2022/10/17 01:37:01;;;;;;;8.47;7.87;;;17.40;99.90;;;;;;4981154;28;20425;-68
2022/10/17 01:39:45;;;;;;;8.47;7.87;;;17.40;99.90;;;;;;5012885;28;20429;-68
2022/10/17 01:42:32;;;;;;;8.97;8.17;;;17.40;99.90;;;;;;5012424;28;20476;-68
2022/10/17 01:45:24;;;;;;;8.77;8.07;;;17.40;99.90;;;;;;5012230;28;20410;-69
2022/10/17 01:47:52;;;;;;;8.57;7.70;;;17.40;99.90;;;;;;5012682;28;20530;-68
2022/10/17 01:50:24;;;;;;;9.53;8.93;;;17.40;99.90;;;;;;4994526;28;20909;-68
2022/10/17 01:52:55;;;;;;;9.83;9.07;;;17.50;99.90;;;;;;5016183;28;20465;-68
2022/10/17 01:55:35;;;;;;;9.07;8.17;;;17.50;99.90;;;;;;5019747;28;20433;-68
2022/10/17 01:58:27;;;;;;;9.40;8.80;;;17.50;99.90;;;;;;5012137;28;20406;-68
2022/10/17 02:00:56;;;;;;;8.53;8.03;;;17.50;99.90;;;;;;5013408;28;20409;-68
2022/10/17 02:03:23;;;;;;;9.17;8.43;;;17.60;99.90;;;;;;5031190;28;20900;-68
2022/10/17 02:05:49;;;;;;;8.93;8.33;;;17.60;99.90;;;;;;5032001;28;20401;-68
2022/10/17 02:08:25;;;;;;;9.33;8.63;;;17.60;99.90;;;;;;5031605;28;20460;-68
2022/10/17 02:10:59;;;;;;;8.13;7.63;;;17.70;99.90;;;;;;5024139;28;20638;-68
2022/10/17 02:13:25;;;;;;;7.63;7.03;;;17.70;99.90;;;;;;5032377;28;20786;-68
2022/10/17 02:16:02;;;;;;;9.03;8.13;;;17.70;99.90;;;;;;5022944;28;20442;-68
2022/10/17 02:18:46;;;;;;;8.40;7.80;;;17.70;99.90;;;;;;5012667;28;20226;-68
2022/10/17 02:21:28;;;;;;;8.80;7.93;;;17.80;99.90;;;;;;5014826;28;20425;-68
2022/10/17 02:23:58;;;;;;;8.03;7.50;;;17.80;99.90;;;;;;5031906;28;20885;-68
2022/10/17 02:26:57;;;;;;;8.80;8.00;;;17.80;99.90;;;;;;5032320;28;20465;-68
2022/10/17 02:29:30;;;;;;;8.80;8.20;;;17.80;99.90;;;;;;5032274;28;20389;-68
2022/10/17 02:32:08;;;;;;;9.30;7.47;;;17.80;99.90;;;;;;5030639;28;20425;-69
2022/10/17 02:34:50;;;;;;;7.80;7.30;;;17.80;99.90;;;;;;5032189;28;20487;-67
2022/10/17 02:37:21;;;;;;;8.53;7.93;;;17.80;99.90;;;;;;5027268;28;20545;-68
2022/10/17 02:39:49;;;;;;;8.53;7.70;;;17.70;99.90;;;;;;5016047;28;20427;-69
2022/10/17 02:42:16;;;;;;;8.90;8.30;;;17.70;99.90;;;;;;5026106;28;20474;-69
2022/10/17 02:44:43;;;;;;;8.90;8.30;;;17.70;99.90;;;;;;5035506;28;20429;-69
2022/10/17 02:47:26;;;;;;;8.77;8.17;;;17.70;99.90;;;;;;5034895;28;20416;-69
2022/10/17 02:49:54;;;;;;;8.70;7.93;;;17.70;99.90;;;;;;5035610;28;20405;-69
2022/10/17 02:52:40;;;;;;;8.70;8.03;;;17.70;99.90;;;;;;5033308;28;20514;-68
2022/10/17 02:55:31;;;;;;;8.43;7.93;;;17.60;99.90;;;;;;5034885;28;20432;-69
2022/10/17 02:58:01;;;;;;;9.70;8.70;;;17.60;99.90;;;;;;5027838;28;20775;-69
2022/10/17 03:00:28;;;;;;;8.33;7.80;;;17.60;99.90;;;;;;5029324;28;20525;-69
2022/10/17 03:02:54;;;;;;;8.90;8.40;;;17.60;99.90;;;;;;5013156;28;20472;-69
2022/10/17 03:05:23;;;;;;;9.43;8.63;;;17.50;99.90;;;;;;5015241;28;20444;-69
2022/10/17 03:07:49;;;;;;;8.57;7.90;;;17.50;99.90;;;;;;5032094;28;20222;-69
2022/10/17 03:10:15;;;;;;;8.93;8.10;;;17.50;99.90;;;;;;5034581;28;20425;-69
2022/10/17 03:12:40;;;;;;;8.83;8.00;;;17.50;99.90;;;;;;5034434;28;20421;-69
2022/10/17 03:15:07;;;;;;;8.83;8.13;;;17.50;99.90;;;;;;5034259;28;20409;-69
2022/10/17 03:17:33;;;;;;;8.73;8.00;;;17.60;99.90;;;;;;5017394;28;20202;-69
2022/10/17 03:19:59;;;;;;;8.13;7.63;;;17.60;99.90;;;;;;5034959;28;20420;-69
2022/10/17 03:22:25;;;;;;;8.30;7.70;;;17.60;99.90;;;;;;5032585;28;20987;-69
2022/10/17 03:24:51;;;;;;;8.93;8.23;;;17.60;99.90;;;;;;5034057;28;20433;-69
2022/10/17 03:27:16;;;;;;;8.30;7.57;;;17.60;99.90;;;;;;5034145;28;20206;-69
2022/10/17 03:29:42;;;;;;;8.77;8.17;;;17.70;99.90;;;;;;5034547;28;20179;-69
2022/10/17 03:32:08;;;;;;;8.57;7.90;;;17.70;99.90;;;;;;5030747;28;20174;-69
2022/10/17 03:34:33;;;;;;;8.67;7.70;;;17.80;99.90;;;;;;5034908;28;20182;-69
2022/10/17 03:36:59;;;;;;;7.50;7.00;;;17.80;99.90;;;;;;5016152;28;20269;-69
2022/10/17 03:39:25;;;;;;;9.10;8.30;;;17.90;99.90;;;;;;5034047;28;20174;-69
2022/10/17 03:41:50;;;;;;;8.50;7.70;;;17.90;99.90;;;;;;5033571;28;20707;-69
2022/10/17 03:44:16;;;;;;;7.23;6.73;;;17.90;99.90;;;;;;5033962;28;20194;-69
2022/10/17 03:46:42;;;;;;;10.40;9.30;;;17.90;99.90;;;;;;5034181;28;20256;-69
2022/10/17 03:49:08;;;;;;;8.53;7.90;;;17.90;99.90;;;;;;5033101;28;20268;-69
2022/10/17 03:51:35;;;;;;;8.53;7.53;;;17.90;99.90;;;;;;5032974;28;20193;-69
2022/10/17 03:54:01;;;;;;;8.40;7.70;;;18.00;99.90;;;;;;5034389;28;20413;-69
2022/10/17 03:56:27;;;;;;;8.20;7.37;;;18.00;99.90;;;;;;5032184;28;20433;-69
2022/10/17 03:58:54;;;;;;;7.27;6.67;;;18.00;99.90;;;;;;5034328;28;20424;-69
2022/10/17 04:01:20;;;;;;;8.03;7.50;;;18.00;99.90;;;;;;5032784;28;20789;-68
2022/10/17 04:03:53;;;;;;;8.47;7.63;;;18.00;99.90;;;;;;5034408;28;20413;-69
2022/10/17 04:06:20;;;;;;;8.50;7.80;;;18.00;99.90;;;;;;5020127;28;20461;-69
2022/10/17 04:08:46;;;;;;;8.23;7.40;;;18.00;99.90;;;;;;5034075;28;20444;-68
2022/10/17 04:11:17;;;;;;;7.47;6.97;;;18.00;99.90;;;;;;5033015;28;20488;-69
2022/10/17 04:13:44;;;;;;;7.87;7.17;;;18.00;99.90;;;;;;5033679;28;20577;-68
2022/10/17 04:16:15;;;;;;;7.50;6.90;;;18.00;99.90;;;;;;5033477;28;20440;-69
2022/10/17 04:18:41;;;;;;;9.77;7.20;;;18.00;99.90;;;;;;5033164;28;20429;-68
2022/10/17 04:21:09;;;;;;;7.90;7.30;;;17.90;99.90;;;;;;5031585;28;20493;-71
2022/10/17 04:23:35;;;;;;;7.27;6.57;;;17.90;99.90;;;;;;5033739;28;20405;-71
2022/10/17 04:26:02;;;;;;;7.60;7.10;;;17.90;99.90;;;;;;5033609;28;20461;-70
2022/10/17 04:28:29;;;;;;;7.13;6.53;;;18.00;99.90;;;;;;5032759;28;20503;-71
2022/10/17 04:30:59;;;;;;;7.73;7.20;;;18.00;99.90;;;;;;5032973;28;20433;-71
2022/10/17 04:33:25;;;;;;;7.73;6.90;;;18.00;99.90;;;;;;5032738;28;20400;-72
2022/10/17 04:36:02;;;;;;;8.90;7.57;;;17.90;99.90;;;;;;5033654;28;20768;-72
2022/10/17 04:38:29;;;;;;;7.73;7.03;;;18.00;99.90;;;;;;5032878;28;20592;-72
2022/10/17 04:41:03;;;;;;;8.13;7.50;;;18.00;99.90;;;;;;5015313;28;20445;-71
2022/10/17 04:43:30;;;;;;;7.50;6.90;;;18.00;99.90;;;;;;5032846;28;20389;-72
2022/10/17 04:46:00;;;;;;;8.33;7.73;;;18.00;99.90;;;;;;5015143;28;20433;-72
2022/10/17 04:48:28;;;;;;;7.90;7.30;;;18.10;99.90;;;;;;5032675;28;20862;-71
2022/10/17 04:50:57;;;;;;;8.53;7.70;;;18.10;99.90;;;;;;5032297;28;20460;-72
2022/10/17 04:53:24;;;;;;;9.20;8.07;;;18.20;99.90;;;;;;5032545;28;20857;-72
2022/10/17 04:55:50;;;;;;;7.00;6.50;;;18.30;99.90;;;;;;5032919;28;20468;-72
2022/10/17 04:58:16;;;;;;;7.20;6.60;;;18.40;99.90;;;;;;4981497;28;20410;-72
2022/10/17 05:00:42;;;;;;;7.10;6.50;;;18.40;99.90;;;;;;5031325;28;20907;-72
2022/10/17 05:03:07;;;;;;;7.83;6.40;;;18.40;99.90;;;;;;5032543;28;20178;-72
2022/10/17 05:05:37;;;;;;;7.03;6.47;;;18.40;99.90;;;;;;5033081;28;20280;-71
2022/10/17 05:08:04;;;;;;;8.93;8.23;;;18.40;99.90;;;;;;5033098;28;20467;-71
2022/10/17 05:10:34;;;;;;;7.00;6.50;;;18.40;99.90;;;;;;5030656;28;20544;-71
2022/10/17 05:13:00;;;;;;;7.13;6.50;;;18.40;99.90;;;;;;5032739;28;20400;-71
2022/10/17 05:15:25;;;;;;;11.00;6.67;;;18.50;99.90;;;;;;5031747;28;20409;-72
2022/10/17 05:17:54;;;;;;;7.43;6.80;;;18.50;99.90;;;;;;5032369;28;20273;-71
2022/10/17 05:20:20;;;;;;;8.83;8.13;;;18.50;99.90;;;;;;5012771;28;20179;-71
2022/10/17 05:22:46;;;;;;;7.40;6.77;;;18.60;99.90;;;;;;5030043;28;20429;-71
2022/10/17 05:25:12;;;;;;;7.10;6.60;;;18.60;99.90;;;;;;5013957;28;20181;-72
2022/10/17 05:27:37;;;;;;;9.80;6.50;;;18.60;99.90;;;;;;5032605;28;20209;-71
2022/10/17 05:30:04;;;;;;;7.60;6.90;;;18.50;99.90;;;;;;5032630;28;20178;-71
2022/10/17 05:32:29;;;;;;;7.17;6.57;;;18.40;99.90;;;;;;5019069;28;20183;-72
2022/10/17 05:34:55;;;;;;;7.00;6.30;;;18.50;99.90;;;;;;5012581;28;20917;-69
2022/10/17 05:37:21;;;;;;;9.93;8.30;;;18.40;99.90;;;;;;5018162;28;20194;-69
2022/10/17 05:39:47;;;;;;;8.10;7.50;;;18.40;99.90;;;;;;5012691;28;20261;-69
2022/10/17 05:42:12;;;;;;;7.13;6.63;;;18.40;99.90;;;;;;5013523;28;20538;-69
2022/10/17 05:44:40;;;;;;;7.50;6.80;;;18.40;99.90;;;;;;5015204;28;20187;-71
2022/10/17 05:47:07;;;;;;;7.93;7.00;;;18.40;99.90;;;;;;5011916;28;20549;-69
2022/10/17 05:49:33;;;;;;;7.10;6.60;;;18.50;99.90;;;;;;5011340;28;20434;-69
2022/10/17 05:51:58;;;;;;;8.80;8.10;;;18.50;99.90;;;;;;5020195;28;20432;-69
2022/10/17 05:54:24;;;;;;;8.53;7.83;;;18.60;99.90;;;;;;5031276;28;20409;-69
2022/10/17 05:56:51;;;;;;;7.40;6.80;;;18.60;99.90;;;;;;5024679;28;20183;-69
2022/10/17 05:59:17;;;;;;;8.20;7.60;;;18.60;99.90;;;;;;5011183;28;20425;-69
2022/10/17 06:01:43;;;;;;;7.60;6.90;;;18.60;99.90;;;;;;5017615;28;20951;-69
2022/10/17 06:04:09;;;;;;;7.73;6.83;;;18.50;99.90;;;;;;5032053;28;20682;-69
2022/10/17 06:06:37;;;;;;;8.20;6.70;;;18.60;99.90;;;;;;5019165;28;20304;-70
2022/10/17 06:09:03;;;;;;;8.00;7.50;;;18.60;99.90;;;;;;5031429;28;20472;-69
2022/10/17 06:11:29;;;;;;;7.80;7.20;;;18.60;99.90;;;;;;5031750;28;20425;-70
2022/10/17 06:13:55;;;;;;;8.03;7.33;;;18.60;99.90;;;;;;5036253;28;20405;-70
2022/10/17 06:16:20;;;;;;;7.47;6.97;;;18.60;99.90;;;;;;5034505;28;20460;-70
2022/10/17 06:18:46;;;;;;;7.87;7.07;;;18.60;99.90;;;;;;5018380;28;20252;-70
2022/10/17 06:21:16;;;;;;;7.47;6.77;;;18.60;99.90;;;;;;5034891;28;20181;-70
2022/10/17 06:23:41;;;;;;;7.67;7.07;;;18.70;99.90;;;;;;5034846;28;20178;-69
2022/10/17 06:26:08;;;;;;;7.90;7.10;;;18.70;99.90;;;;;;5035827;28;20412;-71
2022/10/17 06:28:35;;;;;;;7.57;6.93;;;18.70;99.90;;;;;;5034114;28;20233;-69
2022/10/17 06:31:09;;;;;;;11.70;10.50;;;18.70;99.90;;;;;;5034052;28;20439;-69
2022/10/17 06:33:35;;;;;;;8.10;7.30;;;18.80;99.90;;;;;;5032823;28;20435;-70
2022/10/17 06:36:01;;;;;;;11.30;8.63;;;18.80;99.90;;;;;;5035772;28;20411;-69
2022/10/17 06:38:27;;;;;;;7.87;7.17;;;18.80;99.90;;;;;;5033517;28;20421;-70
2022/10/17 06:40:53;;;;;;;7.07;6.57;;;18.90;99.90;;;;;;5034986;28;20443;-70
2022/10/17 06:43:19;;;;;;;8.13;7.33;;;18.80;99.90;;;;;;5034931;28;20190;-69
2022/10/17 06:45:46;;;;;;;6.97;6.33;;;18.70;99.90;;;;;;5035896;28;20166;-70
2022/10/17 06:48:12;;;;;;;7.43;6.73;;;18.70;99.90;;;;;;5034771;28;20863;-70
2022/10/17 06:50:38;;;;;;;8.70;7.80;;;18.80;99.90;;;;;;5034747;28;20436;-70
2022/10/17 06:53:04;;;;;;;7.70;7.20;;;18.80;99.90;;;;;;5035486;28;20397;-70
2022/10/17 06:55:31;;;;;;;6.43;6.10;;;18.80;99.90;;;;;;4951511;28;20586;-71
2022/10/17 06:57:57;;;;;;;7.60;6.97;;;18.90;99.90;;;;;;5035490;28;20224;-70
2022/10/17 07:00:23;;;;;;;7.00;6.50;;;18.90;99.90;;;;;;5033825;28;20433;-71
2022/10/17 07:02:49;;;;;;;7.40;6.80;;;19.00;99.90;;;;;;5034638;28;20824;-70
2022/10/17 07:05:14;;;;;;;7.70;7.03;;;18.90;99.90;;;;;;5014623;28;20991;-71
2022/10/17 07:07:40;;;;;;;7.13;6.53;;;18.90;99.90;;;;;;5030016;28;20476;-70
2022/10/17 07:10:07;;;;;;;8.60;7.87;;;18.90;99.90;;;;;;5031442;28;21811;-70
2022/10/17 07:12:34;;;;;;;6.90;6.00;;;18.90;99.90;;;;;;4958143;28;20194;-70
2022/10/17 07:15:00;;;;;;;7.57;7.07;;;18.90;99.90;;;;;;5021513;28;20429;-70
2022/10/17 07:17:25;;;;;;;8.03;7.33;;;18.80;99.90;;;;;;5030872;28;20924;-70
2022/10/17 07:19:51;;;;;;;7.37;6.87;;;18.90;99.90;;;;;;5032478;28;20425;-70
2022/10/17 07:22:17;;;;;;;8.00;7.40;;;19.00;99.90;;;;;;5033542;28;20261;-70
2022/10/17 07:24:42;;;;;;;7.53;6.83;;;18.90;99.90;;;;;;5033439;28;20182;-70
2022/10/17 07:27:08;;;;;;;7.20;6.70;;;18.90;99.90;;;;;;5023532;28;20206;-70
2022/10/17 07:29:34;;;;;;;8.03;7.20;;;19.00;99.90;;;;;;5032638;28;20189;-70
2022/10/17 07:32:00;;;;;;;7.10;6.60;;;19.00;99.90;;;;;;5029327;28;20186;-70
2022/10/17 07:34:26;;;;;;;6.90;6.33;;;19.00;99.90;;;;;;5029693;28;20659;-72
2022/10/17 07:36:52;;;;;;;8.57;7.10;;;19.10;99.90;;;;;;5033902;28;20308;-70
2022/10/17 07:39:18;;;;;;;6.73;6.03;;;19.10;99.90;;;;;;5033026;28;20933;-70
2022/10/17 07:41:44;;;;;;;7.40;6.90;;;19.20;99.90;;;;;;5031601;28;20523;-71
2022/10/17 07:44:10;;;;;;;8.23;7.70;;;19.20;99.90;;;;;;5033453;28;20194;-70
2022/10/17 07:46:36;;;;;;;7.23;6.60;;;19.30;99.90;;;;;;5034023;28;20178;-70
2022/10/17 07:49:02;;;;;;;7.43;6.70;;;19.30;99.90;;;;;;5030235;28;21018;-70
2022/10/17 07:51:27;;;;;;;7.50;6.10;;;19.20;99.90;;;;;;5033656;28;20210;-70
2022/10/17 07:53:53;;;;;;;7.10;6.50;;;19.30;99.90;;;;;;5034127;28;20221;-70
2022/10/17 07:56:20;;;;;;;6.77;6.00;;;19.20;99.90;;;;;;5034011;28;20233;-70
2022/10/17 07:58:47;;;;;;;6.77;6.10;;;19.20;99.90;;;;;;5033555;28;20186;-70
2022/10/17 08:01:15;;;;;;;6.70;6.10;;;19.30;99.90;;;;;;5032889;28;20464;-70
2022/10/17 08:03:42;;;;;;;6.70;6.20;;;19.30;99.90;;;;;;5033259;28;20463;-70
2022/10/17 08:06:08;;;;;;;8.70;6.50;;;19.40;99.90;;;;;;5025335;28;20485;-70
2022/10/17 08:08:33;;;;;;;7.90;7.40;;;19.50;99.90;;;;;;4984728;28;20486;-70
2022/10/17 08:11:05;;;;;;;8.97;7.70;;;19.40;99.90;;;;;;5014141;28;20190;-70
2022/10/17 08:13:32;;;;;;;6.73;6.20;;;19.30;99.90;;;;;;5013626;28;20179;-70
2022/10/17 08:16:02;;;;;;;6.80;6.23;;;19.40;99.90;;;;;;5013083;28;20437;-70
2022/10/17 08:18:28;;;;;;;7.40;6.63;;;19.50;99.90;;;;;;5013275;28;20431;-70
2022/10/17 08:20:54;;;;;;;8.07;7.30;;;19.50;99.90;;;;;;4995166;28;20894;-70
2022/10/17 08:23:20;;;;;;;7.30;6.80;;;19.60;99.90;;;;;;4993551;28;20765;-70
2022/10/17 08:25:45;;;;;;;6.93;6.43;;;19.70;99.90;;;;;;5006681;28;20497;-70
2022/10/17 08:28:11;;;;;;;7.77;7.27;;;19.80;99.90;;;;;;4998243;28;20257;-70
2022/10/17 08:30:37;;;;;;;7.90;7.30;;;19.90;99.90;;;;;;5013496;28;20244;-70
2022/10/17 08:33:03;;;;;;;6.90;6.50;;;20.00;99.90;;;;;;4929232;29;20190;-70
2022/10/17 08:35:28;;;;;;;7.00;6.20;;;20.00;99.90;;;;;;4933233;29;20513;-70
2022/10/17 08:37:54;;;;;;;6.37;5.73;;;20.20;99.90;;;;;;4933816;29;20284;-70
2022/10/17 08:40:24;;;;;;;6.27;5.90;;;20.20;99.90;;;;;;4933346;29;20234;-71
2022/10/17 08:43:09;;;;;;;8.37;7.67;;;20.20;99.90;;;;;;4932936;29;20201;-70
2022/10/17 08:45:46;;;;;;;8.93;8.20;;;20.30;99.90;;;;;;4933286;29;20432;-70
2022/10/17 08:48:16;;;;;;;6.90;6.50;;;20.40;99.90;;;;;;4933844;29;20844;-70
2022/10/17 08:51:10;;;;;;;7.10;6.60;;;20.50;99.90;;;;;;4930815;29;20806;-70
2022/10/17 08:54:11;;;;;;;6.93;6.53;;;20.60;99.90;;;;;;4913979;29;20481;-70
2022/10/17 08:56:57;;;;;;;7.97;7.37;;;20.50;99.90;;;;;;4901281;29;20521;-69
2022/10/17 08:59:27;;;;;;;7.87;7.37;;;20.70;99.90;;;;;;4931744;29;20802;-70
2022/10/17 09:02:01;;;;;;;7.60;6.90;;;20.80;99.90;;;;;;4932645;29;20421;-70
2022/10/17 09:04:37;;;;;;;7.00;6.27;;;21.00;99.90;;;;;;4983601;28;20512;-70
2022/10/17 09:07:15;;;;;;;7.10;6.70;;;21.20;99.90;;;;;;5024290;28;20786;-70
2022/10/17 09:09:55;;;;;;;6.60;6.10;;;21.40;99.90;;;;;;5021712;28;20697;-70
2022/10/17 09:13:05;;;;;;;12.00;7.70;;;21.60;99.90;;;;;;5016807;28;20498;-75
2022/10/17 09:15:43;;;;;;;6.70;6.30;;;21.90;99.90;;;;;;4964515;28;20449;-70
2022/10/17 09:18:14;;;;;;;6.83;6.33;;;22.10;99.90;;;;;;4968703;28;20557;-70
2022/10/17 09:20:50;;;;;;;6.90;6.40;;;22.10;99.90;;;;;;4959440;28;20445;-70
2022/10/17 09:23:22;;;;;;;7.40;6.87;;;22.00;99.90;;;;;;4952492;29;20421;-70
2022/10/17 09:25:52;;;;;;;6.73;6.23;;;21.90;99.90;;;;;;4952491;29;20441;-70
2022/10/17 09:28:29;;;;;;;6.50;6.10;;;21.90;99.90;;;;;;4952312;29;20848;-70
2022/10/17 09:31:02;;;;;;;6.60;6.07;;;22.10;99.90;;;;;;4961447;28;20951;-70
2022/10/17 09:33:40;;;;;;;6.00;5.60;;;22.20;99.90;;;;;;4969185;28;20448;-70
2022/10/17 09:36:15;;;;;;;10.17;6.00;;;22.20;99.90;;;;;;4971697;28;20810;-70
2022/10/17 09:38:48;;;;;;;8.07;7.30;;;22.40;99.90;;;;;;4971015;28;21018;-70
2022/10/17 09:41:28;;;;;;;7.73;7.00;;;22.90;99.90;;;;;;4970153;28;20619;-70
2022/10/17 09:43:58;;;;;;;7.40;6.70;;;23.30;99.90;;;;;;4971624;28;20507;-70
2022/10/17 09:46:31;;;;;;;11.00;6.17;;;23.80;99.90;;;;;;5010749;28;20924;-72
2022/10/17 09:49:21;;;;;;;7.10;6.60;;;24.10;99.90;;;;;;5037568;28;20507;-70
2022/10/17 09:51:47;;;;;;;10.10;6.17;;;24.20;99.90;;;;;;5034931;28;20536;-70
2022/10/17 09:54:26;;;;;;;6.10;5.60;;;24.30;99.80;;;;;;5039087;28;20427;-71
2022/10/17 09:57:05;;;;;;;7.00;6.47;;;24.50;99.40;;;;;;5038912;28;20434;-71
2022/10/17 09:59:35;;;;;;;6.93;6.50;;;24.30;99.10;;;;;;5038323;28;20428;-70
2022/10/17 10:02:18;;;;;;;7.10;6.50;;;24.30;98.70;;;;;;5037424;28;20518;-70
2022/10/17 10:05:16;;;;;;;6.83;6.30;;;23.90;99.60;;;;;;5038180;28;21167;-70
2022/10/17 10:08:00;;;;;;;7.17;5.83;;;23.60;99.90;;;;;;5037763;28;20468;-69
2022/10/17 10:10:28;;;;;;;6.73;6.13;;;23.50;99.90;;;;;;5036460;28;20936;-71
2022/10/17 10:13:10;;;;;;;6.30;5.90;;;23.50;99.90;;;;;;5038979;28;20504;-70
2022/10/17 10:15:40;;;;;;;6.30;5.70;;;23.40;99.90;;;;;;5038442;28;20499;-70
2022/10/17 10:18:23;;;;;;;8.57;6.23;;;23.30;99.90;;;;;;5031893;28;20532;-70
2022/10/17 10:21:05;;;;;;;6.27;5.87;;;23.20;99.90;;;;;;5018358;28;20422;-70
2022/10/17 10:23:31;;;;;;;7.17;6.67;;;22.90;99.90;;;;;;5018727;28;20405;-70
2022/10/17 10:26:02;;;;;;;7.20;6.70;;;22.70;99.90;;;;;;5034995;28;20413;-70
2022/10/17 10:28:31;;;;;;;6.00;5.60;;;22.60;99.90;;;;;;5036567;28;20202;-71
2022/10/17 10:30:59;;;;;;;6.33;5.73;;;22.50;99.90;;;;;;5030698;28;20914;-70
2022/10/17 10:33:28;;;;;;;6.40;5.50;;;22.30;99.90;;;;;;4996525;28;20426;-70
2022/10/17 10:36:00;;;;;;;6.83;6.17;;;22.30;99.90;;;;;;5018769;28;20449;-70
2022/10/17 10:38:27;;;;;;;6.40;5.80;;;22.30;99.90;;;;;;5024937;28;20428;-75
2022/10/17 10:40:56;;;;;;;7.10;6.70;;;22.30;99.90;;;;;;5038750;28;20502;-69
2022/10/17 10:43:38;;;;;;;6.43;5.93;;;22.10;99.90;;;;;;5019045;28;20475;-70
2022/10/17 10:46:19;;;;;;;7.33;6.80;;;22.20;99.90;;;;;;5018467;28;20504;-70
2022/10/17 10:49:02;;;;;;;7.30;6.77;;;22.20;99.90;;;;;;5025016;28;20464;-72
2022/10/17 10:51:32;;;;;;;7.93;7.23;;;22.20;99.90;;;;;;5013330;28;20426;-69
2022/10/17 10:54:10;;;;;;;6.00;5.70;;;22.30;99.90;;;;;;5017355;28;21001;-72
2022/10/17 10:56:49;;;;;;;6.90;6.33;;;22.30;99.90;;;;;;5017080;28;20452;-71
2022/10/17 10:59:39;;;;;;;6.77;6.20;;;22.30;99.90;;;;;;5027961;28;20432;-69
2022/10/17 11:02:34;;;;;;;9.17;6.97;;;22.40;99.90;;;;;;5023031;28;20433;-70
2022/10/17 11:05:26;;;;;;;6.10;5.63;;;22.40;99.90;;;;;;5014983;28;20394;-70
2022/10/17 11:08:19;;;;;;;7.90;7.10;;;22.30;99.90;;;;;;5031327;28;20483;-70
2022/10/17 11:11:06;;;;;;;7.43;6.93;;;22.30;99.90;;;;;;5034431;28;20428;-69
2022/10/17 11:13:47;;;;;;;7.10;6.60;;;22.30;99.90;;;;;;5034344;28;20826;-71
2022/10/17 11:16:19;;;;;;;7.20;6.60;;;22.30;99.90;;;;;;5035215;28;20421;-70
2022/10/17 11:18:51;;;;;;;6.40;6.00;;;22.30;99.90;;;;;;5033618;28;20467;-70
2022/10/17 11:21:27;;;;;;;7.30;6.80;;;22.30;99.90;;;;;;5034972;28;20390;-70
2022/10/17 11:24:09;;;;;;;6.10;5.70;;;22.30;99.90;;;;;;5034592;28;20864;-70
2022/10/17 11:26:42;;;;;;;5.77;5.37;;;22.30;99.90;;;;;;5034366;28;20409;-72
2022/10/17 11:29:11;;;;;;;8.50;5.37;;;22.30;99.90;;;;;;5015382;28;20476;-69
2022/10/17 11:31:42;;;;;;;9.60;5.70;;;22.30;99.90;;;;;;5014470;28;20413;-69
2022/10/17 11:34:18;;;;;;;6.87;6.20;;;22.30;99.90;;;;;;5033158;28;20448;-70
2022/10/17 11:36:46;;;;;;;7.03;6.00;;;22.30;99.90;;;;;;5015872;28;20519;-69
2022/10/17 11:39:27;;;;;;;6.43;5.93;;;22.20;99.90;;;;;;5033196;28;20429;-69
2022/10/17 11:41:58;;;;;;;6.00;5.50;;;22.20;99.90;;;;;;5032008;28;20438;-69
2022/10/17 11:44:35;;;;;;;5.33;4.83;;;22.20;99.90;;;;;;5034800;28;20808;-69
2022/10/17 11:47:12;;;;;;;6.83;6.20;;;22.10;99.90;;;;;;5033793;28;20476;-69
2022/10/17 11:49:45;;;;;;;6.50;5.10;;;22.10;99.90;;;;;;5033910;28;20503;-69
2022/10/17 11:52:27;;;;;;;6.20;5.70;;;22.10;99.90;;;;;;5034809;28;20409;-69
2022/10/17 11:55:00;;;;;;;6.70;6.00;;;22.20;99.90;;;;;;5033669;28;20406;-69
2022/10/17 11:57:51;;;;;;;6.70;6.23;;;22.10;99.90;;;;;;5033030;28;20425;-69
2022/10/17 12:00:34;;;;;;;7.40;6.80;;;22.00;99.90;;;;;;5034284;28;20405;-69
2022/10/17 12:03:35;;;;;;;7.00;6.47;;;22.10;99.90;;;;;;5034041;28;20404;-69
2022/10/17 12:06:38;;;;;;;6.90;6.30;;;22.10;99.90;;;;;;5013769;28;20433;-69
2022/10/17 12:09:11;;;;;;;6.80;6.30;;;22.00;99.90;;;;;;5033533;28;20466;-69
2022/10/17 12:11:53;;;;;;;6.90;6.50;;;21.90;99.90;;;;;;5033521;28;20398;-69
2022/10/17 12:14:38;;;;;;;7.30;6.50;;;21.90;99.90;;;;;;4972895;28;20408;-69
2022/10/17 12:17:38;;;;;;;6.80;6.30;;;21.80;99.90;;;;;;4972172;28;20822;-69
2022/10/17 12:20:23;;;;;;;6.53;6.10;;;21.90;99.90;;;;;;4964575;28;20522;-70
2022/10/17 12:22:50;;;;;;;6.53;6.13;;;21.90;99.90;;;;;;4952897;29;20488;-69
2022/10/17 12:25:26;;;;;;;6.67;6.17;;;21.90;99.90;;;;;;4953365;29;20821;-69
2022/10/17 12:28:12;;;;;;;7.30;6.80;;;21.80;99.90;;;;;;4952719;29;20471;-70
2022/10/17 12:30:53;;;;;;;8.17;6.90;;;21.70;99.90;;;;;;4956731;28;20427;-69
2022/10/17 12:33:21;;;;;;;6.77;6.27;;;21.80;99.90;;;;;;4972443;28;20419;-69
2022/10/17 12:35:50;;;;;;;6.90;6.50;;;21.90;99.90;;;;;;4971755;28;20416;-69
2022/10/17 12:38:24;;;;;;;6.70;6.20;;;21.90;99.90;;;;;;4972296;28;20422;-69
2022/10/17 12:40:55;;;;;;;6.87;6.37;;;21.90;99.90;;;;;;4971346;28;20439;-69
2022/10/17 12:43:26;;;;;;;7.30;6.80;;;21.90;99.90;;;;;;4956341;28;20419;-69
2022/10/17 12:45:58;;;;;;;7.00;6.50;;;22.00;99.90;;;;;;4971632;28;20578;-69
2022/10/17 12:48:33;;;;;;;6.93;6.43;;;22.00;99.90;;;;;;4972473;28;20822;-69
2022/10/17 12:51:04;;;;;;;6.60;6.00;;;22.00;99.90;;;;;;4981540;28;20539;-69
2022/10/17 12:53:53;;;;;;;9.90;6.90;;;22.00;99.90;;;;;;5033275;28;20873;-69
2022/10/17 12:56:28;;;;;;;6.63;6.13;;;22.00;99.90;;;;;;5010067;28;20916;-69
2022/10/17 12:58:57;;;;;;;6.63;6.23;;;22.00;99.90;;;;;;5032548;28;20769;-69
2022/10/17 13:01:35;;;;;;;8.10;6.37;;;22.00;99.90;;;;;;5014584;28;20995;-69
2022/10/17 13:04:04;;;;;;;7.03;6.33;;;22.00;99.90;;;;;;5032862;28;20476;-70
2022/10/17 13:06:36;;;;;;;6.90;6.30;;;21.80;99.90;;;;;;5032676;28;20485;-70
2022/10/17 13:09:13;;;;;;;6.90;6.30;;;21.90;99.90;;;;;;5033009;28;20508;-69
2022/10/17 13:11:39;;;;;;;6.47;5.97;;;21.90;99.90;;;;;;5030933;28;20512;-70